KLCI/LCI METAR and TAF weather

Enter ICAO airport designator
Station Type Date Time Source
KLCI METAR 2020/04/05 06:56 UTC NOAA

KLCI 050656Z AUTO 00000KT 10SM CLR 03/03 A3001 RMK AO2 SLP165 T00280028


Station Type Date Time Source
KLCI Decoded METAR 2020/04/05 06:56 UTC NOAA

Laconia, Laconia Municipal Airport, NH, United States (KLCI) 43-34N 071-25W
Apr 05, 2020 - 02:56 AM EDT / 2020.04.05 0656 UTC
Wind: Calm:0
Visibility: 10 mile(s):0
Sky conditions: clear
Temperature: 37.0 F (2.8 C)
Dew Point: 37.0 F (2.8 C)
Relative Humidity: 100%
Pressure (altimeter): 30.01 in. Hg (1016 hPa)
ob: KLCI 050656Z AUTO 00000KT 10SM CLR 03/03 A3001 RMK AO2 SLP165 T00280028
cycle: 7

Station Type Date Time Source
KLCI TAF UTC NOAA

Error!

Example: see airport list